createdAt,value
2023-01-27T00:00:03.870Z,60.34
2023-01-27T00:03:21.409Z,60.64
2023-01-27T00:06:27.719Z,60.87
2023-01-27T00:09:34.421Z,60.86
2023-01-27T00:12:56.030Z,61.00
2023-01-27T00:16:01.434Z,61.22
2023-01-27T00:19:10.877Z,61.21
2023-01-27T00:22:32.078Z,61.65
2023-01-27T00:25:38.333Z,61.42
2023-01-27T00:28:46.338Z,61.73
2023-01-27T00:32:08.939Z,61.45
2023-01-27T00:35:18.332Z,61.67
2023-01-27T00:38:24.541Z,61.68
2023-01-27T00:41:31.788Z,61.64
2023-01-27T00:44:38.004Z,61.85
2023-01-27T00:47:43.629Z,61.99
2023-01-27T00:50:52.835Z,62.07
2023-01-27T00:53:59.453Z,62.32
2023-01-27T00:57:05.663Z,62.27
2023-01-27T01:00:14.605Z,62.15
2023-01-27T01:03:21.059Z,62.48
2023-01-27T01:06:30.667Z,62.05
2023-01-27T01:09:37.045Z,61.99
2023-01-27T01:12:42.601Z,61.62
2023-01-27T01:15:49.052Z,61.60
2023-01-27T01:18:54.733Z,61.45
2023-01-27T01:22:05.046Z,61.64
2023-01-27T01:25:11.653Z,61.32
2023-01-27T01:28:17.877Z,61.24
2023-01-27T01:31:23.983Z,61.58
2023-01-27T01:34:30.323Z,61.65
2023-01-27T01:37:39.654Z,61.60
2023-01-27T01:40:47.905Z,61.25
2023-01-27T01:43:55.133Z,61.70
2023-01-27T01:47:02.340Z,61.14
2023-01-27T01:50:09.482Z,61.48
2023-01-27T01:53:19.768Z,61.52
2023-01-27T01:56:33.799Z,62.09
2023-01-27T01:59:47.290Z,61.73
2023-01-27T02:02:55.794Z,61.99
2023-01-27T02:06:03.560Z,62.02
2023-01-27T02:09:11.755Z,62.47
2023-01-27T02:12:17.999Z,62.61
2023-01-27T02:15:24.517Z,62.28
2023-01-27T02:18:33.678Z,62.77
2023-01-27T02:21:39.210Z,62.96
2023-01-27T02:24:58.177Z,63.11
2023-01-27T02:28:10.829Z,63.11
2023-01-27T02:31:17.418Z,62.36
2023-01-27T02:34:33.654Z,62.68
2023-01-27T02:37:43.803Z,62.46
2023-01-27T02:40:57.193Z,62.63
2023-01-27T02:44:07.119Z,62.25
2023-01-27T02:47:13.439Z,62.29
2023-01-27T02:50:20.887Z,62.19
2023-01-27T02:53:26.283Z,62.20
2023-01-27T02:56:35.658Z,61.98
2023-01-27T02:59:44.560Z,62.15
2023-01-27T03:02:50.803Z,61.54
2023-01-27T03:05:56.167Z,61.72
2023-01-27T03:09:02.416Z,61.99
2023-01-27T03:12:23.278Z,61.79
2023-01-27T03:15:49.518Z,61.95
2023-01-27T03:18:56.632Z,61.49
2023-01-27T03:22:03.387Z,61.59
2023-01-27T03:25:13.104Z,61.39
2023-01-27T03:28:20.171Z,61.45
2023-01-27T03:31:41.118Z,60.98
2023-01-27T03:34:47.652Z,61.03
2023-01-27T03:38:19.730Z,61.00
2023-01-27T03:41:41.725Z,60.62
2023-01-27T03:45:03.309Z,60.73
2023-01-27T03:48:12.951Z,60.33
2023-01-27T03:51:19.169Z,60.14
2023-01-27T03:54:25.637Z,59.87
2023-01-27T03:57:31.031Z,59.42
2023-01-27T04:00:37.263Z,59.82
2023-01-27T04:04:02.272Z,59.73
2023-01-27T04:07:08.973Z,59.67
2023-01-27T04:10:15.106Z,58.87
2023-01-27T04:13:18.507Z,59.07
2023-01-27T04:16:29.089Z,58.79
2023-01-27T04:19:38.077Z,59.04
2023-01-27T04:22:43.596Z,58.99
2023-01-27T04:25:50.700Z,58.58
2023-01-27T04:28:56.091Z,58.63
2023-01-27T04:32:03.698Z,58.87
2023-01-27T04:35:12.612Z,59.18
2023-01-27T04:38:19.240Z,59.53
2023-01-27T04:41:24.912Z,59.22
2023-01-27T04:44:31.199Z,59.76
2023-01-27T04:47:36.660Z,59.34
2023-01-27T04:50:46.091Z,58.98
2023-01-27T04:53:51.492Z,59.40
2023-01-27T04:57:03.704Z,59.83
2023-01-27T05:00:10.968Z,59.72
2023-01-27T05:03:17.214Z,59.42
2023-01-27T05:06:26.517Z,59.27
2023-01-27T05:09:33.056Z,58.91
2023-01-27T05:12:38.659Z,58.52
2023-01-27T05:15:44.907Z,58.76
2023-01-27T05:18:52.859Z,58.53
2023-01-27T05:22:01.862Z,58.25
2023-01-27T05:25:08.240Z,58.70
2023-01-27T05:28:14.925Z,58.34
2023-01-27T05:31:23.978Z,58.95
2023-01-27T05:34:30.371Z,58.43
2023-01-27T05:37:38.541Z,57.67
2023-01-27T05:40:44.820Z,57.78
2023-01-27T05:43:56.083Z,57.20
2023-01-27T05:47:02.347Z,56.59
2023-01-27T05:50:09.203Z,56.96
2023-01-27T05:53:18.800Z,56.31
2023-01-27T05:56:27.094Z,56.78
2023-01-27T05:59:33.316Z,56.32
2023-01-27T06:02:38.976Z,56.37
2023-01-27T06:05:59.667Z,57.13
2023-01-27T06:09:09.263Z,56.78
2023-01-27T06:12:15.592Z,56.56
2023-01-27T06:15:21.024Z,57.04
2023-01-27T06:18:36.531Z,57.09
2023-01-27T06:21:42.436Z,57.46
2023-01-27T06:24:51.462Z,56.71
2023-01-27T06:27:57.979Z,56.62
2023-01-27T06:31:12.352Z,57.45
2023-01-27T06:34:17.786Z,58.17
2023-01-27T06:37:24.009Z,58.22
2023-01-27T06:40:35.745Z,58.01
2023-01-27T06:43:42.230Z,58.46
2023-01-27T06:46:47.654Z,58.21
2023-01-27T06:49:54.100Z,58.80
2023-01-27T06:53:05.460Z,57.83
2023-01-27T06:56:16.461Z,57.58
2023-01-27T06:59:22.843Z,58.28
2023-01-27T07:02:29.368Z,58.78
2023-01-27T07:05:36.473Z,58.21
2023-01-27T07:08:42.800Z,59.24
2023-01-27T07:11:52.047Z,58.64
2023-01-27T07:14:58.362Z,58.96
2023-01-27T07:18:05.541Z,58.38
2023-01-27T07:21:12.852Z,59.27
2023-01-27T07:24:19.310Z,59.27
2023-01-27T07:27:29.669Z,59.81
2023-01-27T07:30:37.713Z,59.27
2023-01-27T07:33:44.054Z,59.29
2023-01-27T07:36:49.626Z,59.70
2023-01-27T07:39:56.428Z,58.79
2023-01-27T07:43:06.048Z,58.34
2023-01-27T07:46:14.097Z,58.75
2023-01-27T07:49:19.571Z,58.37
2023-01-27T07:52:25.782Z,58.11
2023-01-27T07:55:31.983Z,58.45
2023-01-27T07:58:41.909Z,57.98
2023-01-27T08:01:48.354Z,58.28
2023-01-27T08:04:55.228Z,59.24
2023-01-27T08:08:04.111Z,58.85
2023-01-27T08:11:15.144Z,59.80
2023-01-27T08:14:23.397Z,59.88
2023-01-27T08:17:29.672Z,59.75
2023-01-27T08:20:35.456Z,59.55
2023-01-27T08:23:41.763Z,60.28
2023-01-27T08:26:47.586Z,60.01
2023-01-27T08:29:56.897Z,60.34
2023-01-27T08:33:02.486Z,61.11
2023-01-27T08:36:13.184Z,61.24
2023-01-27T08:39:18.603Z,61.30
2023-01-27T08:42:25.086Z,61.01
2023-01-27T08:45:33.383Z,60.44
2023-01-27T08:48:40.814Z,61.42
2023-01-27T08:51:47.221Z,60.75
2023-01-27T08:54:53.495Z,62.25
2023-01-27T08:57:59.357Z,62.20
2023-01-27T09:01:10.975Z,62.67
2023-01-27T09:04:16.435Z,62.94
2023-01-27T09:07:23.090Z,62.29
2023-01-27T09:10:28.510Z,62.30
2023-01-27T09:13:34.740Z,61.87
2023-01-27T09:16:43.394Z,61.37
2023-01-27T09:19:50.393Z,61.42
2023-01-27T09:22:58.733Z,60.70
2023-01-27T09:26:04.957Z,61.41
2023-01-27T09:29:10.315Z,60.75
2023-01-27T09:32:19.559Z,61.05
2023-01-27T09:35:25.012Z,60.41
2023-01-27T09:38:41.031Z,60.08
2023-01-27T09:42:22.445Z,60.20
2023-01-27T09:46:01.946Z,59.26
2023-01-27T09:49:37.433Z,59.01
2023-01-27T09:53:58.565Z,58.65
2023-01-27T09:57:21.241Z,58.08
2023-01-27T10:00:53.324Z,58.11
2023-01-27T10:04:29.216Z,57.10
2023-01-27T10:08:02.580Z,56.63
2023-01-27T10:11:24.455Z,56.46
2023-01-27T10:14:48.463Z,56.77
2023-01-27T10:18:37.686Z,57.10
2023-01-27T10:22:09.454Z,57.04
2023-01-27T10:25:37.064Z,56.59
2023-01-27T10:28:54.135Z,57.00
2023-01-27T10:32:29.948Z,56.50
2023-01-27T10:35:53.499Z,56.23
2023-01-27T10:39:24.923Z,55.28
2023-01-27T10:42:45.024Z,55.16
2023-01-27T10:46:02.974Z,54.02
2023-01-27T10:49:23.496Z,53.61
2023-01-27T10:52:39.275Z,53.06
2023-01-27T10:56:04.259Z,52.34
2023-01-27T10:59:25.493Z,52.11
2023-01-27T11:02:43.911Z,52.25
2023-01-27T11:05:56.392Z,52.26
2023-01-27T11:09:17.288Z,51.89
2023-01-27T11:12:35.295Z,52.15
2023-01-27T11:15:41.944Z,52.58
2023-01-27T11:18:52.347Z,52.70
2023-01-27T11:22:07.845Z,53.39
2023-01-27T11:25:30.699Z,53.14
2023-01-27T11:28:54.650Z,52.96
2023-01-27T11:32:11.595Z,52.83
2023-01-27T11:35:19.846Z,52.61
2023-01-27T11:38:27.408Z,52.81
2023-01-27T11:41:40.401Z,52.26
2023-01-27T11:44:49.371Z,51.27
2023-01-27T11:48:03.505Z,51.29
2023-01-27T11:51:15.387Z,51.61
2023-01-27T11:54:28.844Z,51.71
2023-01-27T11:57:34.291Z,51.11
2023-01-27T12:00:50.589Z,51.30
2023-01-27T12:04:07.992Z,50.89
2023-01-27T12:07:24.970Z,51.37
2023-01-27T12:10:35.307Z,51.43
2023-01-27T12:13:53.355Z,51.18
2023-01-27T12:17:07.165Z,51.84
2023-01-27T12:20:40.128Z,50.62
2023-01-27T12:23:57.096Z,50.87
2023-01-27T12:27:07.545Z,50.98
2023-01-27T12:30:26.998Z,51.27
2023-01-27T12:33:40.815Z,51.28
2023-01-27T12:36:48.422Z,51.42
2023-01-27T12:40:03.394Z,52.00
2023-01-27T12:43:19.054Z,52.35
2023-01-27T12:46:29.238Z,52.95
2023-01-27T12:49:44.814Z,53.02
2023-01-27T12:53:06.253Z,53.15
2023-01-27T12:56:18.160Z,52.98
2023-01-27T12:59:28.447Z,53.09
2023-01-27T13:02:37.295Z,53.35
2023-01-27T13:05:47.189Z,53.57
2023-01-27T13:08:56.492Z,54.02
2023-01-27T13:12:19.507Z,54.54
2023-01-27T13:15:29.628Z,53.97
2023-01-27T13:18:41.146Z,53.88
2023-01-27T13:21:56.173Z,53.82
2023-01-27T13:25:06.656Z,54.20
2023-01-27T13:28:24.756Z,53.78
2023-01-27T13:31:49.106Z,54.44
2023-01-27T13:35:07.973Z,54.29
2023-01-27T13:38:29.470Z,53.78
2023-01-27T13:41:48.886Z,53.68
2023-01-27T13:45:06.006Z,57.79
2023-01-27T13:48:24.052Z,53.01
2023-01-27T13:51:34.095Z,52.40
2023-01-27T13:54:42.974Z,52.49
2023-01-27T13:58:06.642Z,52.93
2023-01-27T14:01:28.197Z,52.44
2023-01-27T14:05:02.548Z,52.57
2023-01-27T14:08:38.942Z,52.83
2023-01-27T14:12:02.541Z,52.94
2023-01-27T14:15:30.100Z,52.73
2023-01-27T14:18:45.328Z,53.43
2023-01-27T14:22:04.296Z,52.82
2023-01-27T14:25:29.285Z,52.75
2023-01-27T14:28:58.783Z,52.88
2023-01-27T14:32:26.436Z,53.01
2023-01-27T14:35:48.806Z,53.24
2023-01-27T14:39:10.248Z,53.71
2023-01-27T14:42:30.990Z,53.80
2023-01-27T14:45:43.908Z,53.60
2023-01-27T14:49:11.666Z,53.23
2023-01-27T14:52:42.078Z,54.09
2023-01-27T14:56:03.050Z,53.70
2023-01-27T14:59:29.825Z,54.43
2023-01-27T15:03:03.673Z,54.61
2023-01-27T15:06:26.158Z,54.73
2023-01-27T15:10:05.155Z,53.85
2023-01-27T15:13:56.520Z,53.74
2023-01-27T15:17:33.630Z,53.29
2023-01-27T15:21:14.520Z,53.52
2023-01-27T15:24:51.091Z,53.33
2023-01-27T15:27:59.929Z,53.37
2023-01-27T15:31:25.064Z,53.77
2023-01-27T15:34:31.365Z,53.36
2023-01-27T15:38:01.169Z,53.09
2023-01-27T15:41:17.919Z,53.36
2023-01-27T15:44:33.419Z,53.33
2023-01-27T15:47:40.737Z,52.68
2023-01-27T15:50:53.060Z,53.06
2023-01-27T15:54:04.327Z,52.42
2023-01-27T15:57:26.871Z,52.89
2023-01-27T16:00:41.288Z,52.49
2023-01-27T16:03:53.390Z,52.85
2023-01-27T16:07:05.707Z,52.48
2023-01-27T16:10:25.778Z,51.89
2023-01-27T16:13:33.910Z,51.85
2023-01-27T16:16:39.296Z,51.53
2023-01-27T16:19:57.971Z,51.32
2023-01-27T16:23:27.969Z,51.13
2023-01-27T16:26:49.464Z,50.52
2023-01-27T16:30:02.110Z,50.64
2023-01-27T16:33:19.119Z,50.38
2023-01-27T16:36:31.392Z,50.02
2023-01-27T16:39:49.618Z,49.73
2023-01-27T16:43:09.224Z,49.66
2023-01-27T16:46:34.804Z,50.51
2023-01-27T16:49:44.554Z,50.13
2023-01-27T16:52:51.572Z,50.32
2023-01-27T16:56:03.523Z,50.00
2023-01-27T16:59:26.885Z,50.81
2023-01-27T17:02:34.999Z,49.48
2023-01-27T17:05:43.380Z,50.48
2023-01-27T17:08:51.153Z,50.50
2023-01-27T17:11:58.783Z,49.85
2023-01-27T17:15:24.220Z,50.23
2023-01-27T17:18:40.386Z,50.79
2023-01-27T17:21:59.164Z,50.45
2023-01-27T17:25:09.649Z,50.94
2023-01-27T17:28:26.682Z,50.71
2023-01-27T17:31:41.462Z,50.16
2023-01-27T17:34:47.274Z,50.10
2023-01-27T17:37:54.553Z,50.37
2023-01-27T17:40:59.959Z,50.33
2023-01-27T17:44:14.896Z,51.05
2023-01-27T17:47:25.506Z,49.96
2023-01-27T17:50:40.989Z,50.54
2023-01-27T17:53:46.600Z,50.74
2023-01-27T17:57:04.557Z,50.60
2023-01-27T18:00:13.790Z,51.13
2023-01-27T18:03:28.572Z,51.36
2023-01-27T18:06:34.065Z,51.02
2023-01-27T18:09:49.569Z,51.38
2023-01-27T18:12:55.938Z,51.16
2023-01-27T18:16:05.162Z,51.60
2023-01-27T18:19:25.665Z,51.86
2023-01-27T18:22:32.238Z,51.71
2023-01-27T18:25:37.680Z,51.98
2023-01-27T18:28:46.689Z,52.30
2023-01-27T18:31:57.647Z,52.76
2023-01-27T18:35:25.223Z,53.38
2023-01-27T18:38:36.129Z,53.38
2023-01-27T18:41:50.287Z,52.63
2023-01-27T18:44:57.188Z,52.94
2023-01-27T18:48:04.361Z,52.62
2023-01-27T18:51:18.801Z,52.61
2023-01-27T18:54:25.689Z,51.96
2023-01-27T18:57:32.103Z,51.78
2023-01-27T19:00:45.965Z,51.53
2023-01-27T19:03:52.719Z,51.83
2023-01-27T19:07:02.079Z,52.05
2023-01-27T19:10:16.500Z,51.86
2023-01-27T19:13:23.856Z,51.80
2023-01-27T19:16:33.767Z,52.28
2023-01-27T19:19:40.180Z,52.12
2023-01-27T19:22:48.778Z,52.06
2023-01-27T19:26:00.195Z,51.14
2023-01-27T19:29:06.300Z,51.43
2023-01-27T19:32:17.063Z,51.44
2023-01-27T19:35:22.827Z,51.50
2023-01-27T19:38:33.672Z,51.07
2023-01-27T19:41:39.114Z,51.20
2023-01-27T19:44:45.530Z,51.32
2023-01-27T19:47:53.113Z,51.42
2023-01-27T19:50:59.347Z,51.34
2023-01-27T19:54:10.124Z,52.10
2023-01-27T19:57:20.478Z,51.04
2023-01-27T20:00:30.593Z,51.97
2023-01-27T20:03:37.048Z,51.80
2023-01-27T20:06:42.643Z,52.13
2023-01-27T20:09:51.681Z,51.53
2023-01-27T20:13:00.843Z,51.45
2023-01-27T20:16:08.102Z,51.42
2023-01-27T20:19:15.197Z,51.97
2023-01-27T20:22:21.779Z,51.34
2023-01-27T20:25:31.697Z,52.30
2023-01-27T20:28:38.220Z,51.52
2023-01-27T20:31:44.066Z,51.95
2023-01-27T20:34:50.403Z,51.86
2023-01-27T20:37:57.878Z,51.53
2023-01-27T20:41:14.224Z,51.39
2023-01-27T20:44:19.904Z,51.51
2023-01-27T20:47:26.263Z,51.44
2023-01-27T20:50:32.139Z,51.60
2023-01-27T20:53:45.542Z,51.60
2023-01-27T20:57:30.544Z,51.07
2023-01-27T21:00:44.635Z,51.96
2023-01-27T21:03:51.538Z,50.90
2023-01-27T21:06:57.867Z,51.44
2023-01-27T21:10:03.430Z,51.01
2023-01-27T21:13:12.604Z,51.63
2023-01-27T21:16:18.657Z,51.47
2023-01-27T21:19:24.968Z,51.77
2023-01-27T21:22:30.362Z,51.29
2023-01-27T21:25:40.118Z,50.87
2023-01-27T21:28:48.320Z,50.79
2023-01-27T21:31:54.639Z,51.60
2023-01-27T21:34:59.990Z,51.24
2023-01-27T21:38:06.647Z,51.50
2023-01-27T21:41:37.181Z,51.15
2023-01-27T21:45:01.746Z,51.15
2023-01-27T21:48:08.290Z,51.56
2023-01-27T21:51:14.576Z,51.57
2023-01-27T21:54:19.914Z,51.41
2023-01-27T21:57:26.143Z,51.24
2023-01-27T22:00:34.358Z,51.18
2023-01-27T22:03:41.633Z,51.70
2023-01-27T22:06:47.236Z,51.03
2023-01-27T22:09:53.882Z,50.99
2023-01-27T22:13:03.712Z,51.71
2023-01-27T22:16:17.051Z,52.08
2023-01-27T22:19:22.919Z,51.87
2023-01-27T22:22:29.205Z,52.18
2023-01-27T22:25:34.591Z,52.03
2023-01-27T22:28:40.807Z,51.72
2023-01-27T22:31:49.299Z,51.78
2023-01-27T22:34:55.539Z,52.19
2023-01-27T22:38:02.205Z,51.84
2023-01-27T22:41:09.068Z,51.46
2023-01-27T22:44:16.795Z,51.38
2023-01-27T22:47:25.876Z,51.43
2023-01-27T22:50:31.379Z,51.72
2023-01-27T22:53:37.712Z,51.80
2023-01-27T22:56:43.383Z,52.27
2023-01-27T22:59:49.652Z,51.88
2023-01-27T23:02:57.925Z,52.19
2023-01-27T23:06:07.954Z,52.56
2023-01-27T23:09:15.156Z,52.10
2023-01-27T23:12:21.628Z,51.91
2023-01-27T23:15:27.025Z,51.76
2023-01-27T23:18:36.056Z,51.86
2023-01-27T23:21:42.066Z,51.72
2023-01-27T23:24:48.338Z,52.28
2023-01-27T23:27:53.896Z,51.79
2023-01-27T23:31:00.258Z,51.50
2023-01-27T23:34:08.955Z,51.62
2023-01-27T23:37:15.185Z,52.09
2023-01-27T23:40:21.587Z,51.08
2023-01-27T23:43:28.487Z,51.78
2023-01-27T23:46:34.032Z,51.27
2023-01-27T23:49:43.120Z,51.69
2023-01-27T23:52:48.729Z,51.57
2023-01-27T23:56:00.952Z,51.68
2023-01-27T23:59:06.509Z,51.33
